Time;durP1;ratioP1;P1;durP2;ratioP2;P2;SDS_P1;SDS_P2;PMS_P1;PMS_P2;Temp;Humidity;BMP_temperature;BMP_pressure;BME280_temperature;BME280_humidity;BME280_pressure;Samples;Min_cycle;Max_cycle;Signal;HPM_P1;HPM_P2
2021/05/31 01:30:27;;;;;;;10.83;10.20;;;10.60;97.70;;;;;;5592270;23;20489;-67
2021/05/31 01:32:56;;;;;;;10.60;10.10;;;10.40;97.70;;;;;;4948534;29;20503;-67
2021/05/31 01:35:25;;;;;;;10.97;10.37;;;10.30;98.70;;;;;;4942538;29;20473;-67
2021/05/31 01:37:54;;;;;;;10.97;10.07;;;10.30;99.00;;;;;;4933835;29;20549;-67
2021/05/31 01:40:22;;;;;;;10.80;10.27;;;10.10;99.50;;;;;;4934159;29;20540;-68
2021/05/31 01:42:51;;;;;;;10.80;10.33;;;10.20;99.30;;;;;;4934282;29;20457;-67
2021/05/31 01:45:18;;;;;;;11.10;10.60;;;10.10;99.90;;;;;;4934476;29;20497;-67
2021/05/31 01:47:46;;;;;;;10.90;10.30;;;10.10;99.90;;;;;;4934149;29;20471;-67
2021/05/31 01:50:13;;;;;;;11.80;11.10;;;10.00;99.90;;;;;;4934239;29;20955;-67
2021/05/31 01:52:44;;;;;;;10.07;9.67;;;9.90;99.90;;;;;;4934380;29;20452;-67
2021/05/31 01:55:13;;;;;;;10.40;9.90;;;10.00;99.90;;;;;;4934151;29;20977;-67
2021/05/31 01:57:42;;;;;;;12.00;11.23;;;9.90;99.90;;;;;;4934232;29;20492;-67
2021/05/31 02:00:09;;;;;;;12.00;11.37;;;9.70;99.90;;;;;;4933948;29;20449;-67
2021/05/31 02:02:36;;;;;;;10.70;10.03;;;9.70;99.90;;;;;;4933904;29;20454;-67
2021/05/31 02:05:05;;;;;;;11.63;11.00;;;9.60;99.90;;;;;;4934075;29;20970;-68
2021/05/31 02:07:32;;;;;;;12.40;11.70;;;9.60;99.90;;;;;;4934295;29;20454;-67
2021/05/31 02:09:58;;;;;;;13.07;12.00;;;9.70;99.90;;;;;;4934241;29;20839;-67
2021/05/31 02:12:29;;;;;;;11.57;10.97;;;9.70;99.90;;;;;;4933763;29;20505;-67
2021/05/31 02:15:02;;;;;;;12.50;11.70;;;9.60;99.90;;;;;;4934138;29;20445;-67
2021/05/31 02:17:34;;;;;;;12.37;11.73;;;9.60;99.90;;;;;;4933767;29;20489;-67
2021/05/31 02:20:05;;;;;;;11.70;11.00;;;9.40;99.90;;;;;;4934306;29;20766;-67
2021/05/31 02:22:34;;;;;;;12.20;11.40;;;9.30;99.90;;;;;;4933944;29;20820;-67
2021/05/31 02:25:01;;;;;;;12.60;12.00;;;9.30;99.90;;;;;;4934113;29;20468;-67
2021/05/31 02:27:29;;;;;;;11.77;10.97;;;9.20;99.90;;;;;;4933995;29;20451;-67
2021/05/31 02:29:55;;;;;;;14.73;13.50;;;9.20;99.90;;;;;;4933687;29;20473;-67
2021/05/31 02:32:21;;;;;;;13.00;12.20;;;9.20;99.90;;;;;;4933427;29;20491;-67
2021/05/31 02:34:47;;;;;;;12.83;12.13;;;9.10;99.90;;;;;;4933848;29;20457;-67
2021/05/31 02:37:15;;;;;;;13.90;13.10;;;9.10;99.90;;;;;;4933792;29;20505;-67
2021/05/31 02:39:41;;;;;;;14.20;13.10;;;8.90;99.90;;;;;;4933518;29;20458;-67
2021/05/31 02:42:08;;;;;;;12.10;10.97;;;8.80;99.90;;;;;;4933467;29;20457;-68
2021/05/31 02:44:34;;;;;;;12.97;12.10;;;8.90;99.90;;;;;;4933610;29;20805;-67
2021/05/31 02:47:00;;;;;;;11.70;11.07;;;8.90;99.90;;;;;;4933384;29;20879;-68
2021/05/31 02:49:26;;;;;;;12.37;11.47;;;9.10;99.90;;;;;;4932972;29;20831;-68
2021/05/31 02:51:53;;;;;;;13.13;12.27;;;8.90;99.90;;;;;;4933411;29;20460;-68
2021/05/31 02:54:20;;;;;;;12.50;11.70;;;9.10;99.90;;;;;;4933452;29;20454;-67
2021/05/31 02:56:46;;;;;;;11.87;11.13;;;8.90;99.90;;;;;;4933246;29;20456;-67
2021/05/31 02:59:13;;;;;;;13.80;12.70;;;8.70;99.90;;;;;;4933345;29;20493;-69
2021/05/31 03:01:40;;;;;;;13.10;12.30;;;8.90;99.90;;;;;;4933460;29;20509;-67
2021/05/31 03:04:06;;;;;;;13.30;12.40;;;8.80;99.90;;;;;;4933291;29;20468;-68
2021/05/31 03:06:32;;;;;;;14.07;13.00;;;8.80;99.90;;;;;;4933404;29;20827;-69
2021/05/31 03:08:58;;;;;;;14.43;13.03;;;8.80;99.90;;;;;;4933330;29;20449;-66
2021/05/31 03:11:26;;;;;;;13.80;13.00;;;8.80;99.90;;;;;;4933233;29;20959;-67
2021/05/31 03:13:52;;;;;;;13.70;12.73;;;8.80;99.90;;;;;;4933288;29;20656;-69
